Time;durP1;ratioP1;P1;durP2;ratioP2;P2;SDS_P1;SDS_P2;PMS_P1;PMS_P2;Temp;Humidity;BMP_temperature;BMP_pressure;BME280_temperature;BME280_humidity;BME280_pressure;Samples;Min_cycle;Max_cycle;Signal;HPM_P1;HPM_P2
2021/06/03 00:00:32;;;;;;;7.95;5.68;;;;;;;14.82;80.23;95815.78;1016109;29;20025;-73
2021/06/03 00:01:04;;;;;;;7.20;5.30;;;;;;;14.59;80.58;95784.13;1019822;29;20034;-73
2021/06/03 00:01:34;;;;;;;8.18;5.18;;;;;;;14.72;80.64;95808.19;1020053;29;20047;-74
2021/06/03 00:02:06;;;;;;;8.90;5.57;;;;;;;14.77;80.62;95811.09;1018950;29;20389;-74
2021/06/03 00:02:36;;;;;;;11.18;5.80;;;;;;;14.79;80.38;95813.56;1016004;29;20406;-73
2021/06/03 00:03:07;;;;;;;8.85;5.82;;;;;;;14.77;80.41;95805.75;1012464;29;20080;-73
2021/06/03 00:03:38;;;;;;;8.20;5.28;;;;;;;14.81;80.23;95811.50;1008192;29;20059;-75
2021/06/03 00:04:09;;;;;;;9.50;5.97;;;;;;;14.84;80.74;95811.09;1008474;29;20399;-74
2021/06/03 00:04:40;;;;;;;8.82;5.43;;;;;;;14.84;80.32;95813.75;1012230;29;20036;-73
2021/06/03 00:05:10;;;;;;;8.18;5.75;;;;;;;14.68;80.33;95797.09;1008245;29;20035;-74
2021/06/03 00:05:46;;;;;;;8.32;5.35;;;;;;;14.70;80.38;95797.72;1008360;29;20096;-73
2021/06/03 00:06:16;;;;;;;9.52;5.38;;;;;;;14.76;80.38;95814.78;1008409;29;20081;-73
2021/06/03 00:06:47;;;;;;;8.10;5.35;;;;;;;14.76;80.34;95813.97;1012177;29;20024;-73
2021/06/03 00:07:19;;;;;;;7.82;5.38;;;;;;;14.75;80.27;95810.47;1012069;29;20054;-73
2021/06/03 00:07:50;;;;;;;9.60;5.15;;;;;;;14.71;80.52;95817.25;1008129;29;20058;-73
2021/06/03 00:08:22;;;;;;;12.32;5.47;;;;;;;14.63;80.71;95810.25;1013107;29;20080;-72
2021/06/03 00:08:52;;;;;;;7.45;4.85;;;;;;;14.66;80.37;95815.19;1019640;29;20032;-75
2021/06/03 00:09:23;;;;;;;8.10;4.95;;;;;;;14.67;80.25;95810.66;1009806;29;20115;-74
2021/06/03 00:09:54;;;;;;;9.68;5.30;;;;;;;14.68;79.82;95820.31;1019967;29;20402;-74
2021/06/03 00:10:26;;;;;;;7.25;4.70;;;;;;;14.64;79.76;95800.38;1022131;29;20027;-73
2021/06/03 00:11:03;;;;;;;10.32;5.57;;;;;;;14.71;79.67;95809.22;1018530;29;20024;-73
2021/06/03 00:11:33;;;;;;;8.18;5.25;;;;;;;14.73;79.37;95814.38;1018908;29;20549;-73
2021/06/03 00:12:05;;;;;;;10.80;4.95;;;;;;;14.65;79.04;95800.19;1017653;29;20028;-73
2021/06/03 00:12:36;;;;;;;16.88;5.80;;;;;;;14.71;78.55;95809.22;1017655;29;20051;-73
2021/06/03 00:13:07;;;;;;;8.55;5.35;;;;;;;14.69;79.12;95813.94;1013472;29;20034;-73
2021/06/03 00:13:38;;;;;;;7.45;4.60;;;;;;;14.65;78.96;95807.38;1013816;29;20032;-73
2021/06/03 00:14:09;;;;;;;6.43;5.25;;;;;;;14.69;78.79;95813.94;1013686;29;20103;-72
2021/06/03 00:14:39;;;;;;;7.50;4.72;;;;;;;14.67;78.75;95811.47;1020910;29;20023;-74
2021/06/03 00:15:11;;;;;;;7.72;5.03;;;;;;;14.64;78.92;95811.06;1020164;29;20023;-74
2021/06/03 00:15:42;;;;;;;8.55;4.93;;;;;;;14.67;78.93;95811.47;1020323;29;20027;-73
2021/06/03 00:16:14;;;;;;;11.25;8.18;;;;;;;14.64;79.00;95805.72;1015902;29;20032;-72
2021/06/03 00:16:45;;;;;;;9.85;4.93;;;;;;;14.68;78.67;95810.47;1019911;29;20071;-74
2021/06/03 00:17:16;;;;;;;10.18;5.28;;;;;;;14.69;78.72;95809.41;1015921;29;20039;-73
2021/06/03 00:17:47;;;;;;;7.03;4.55;;;;;;;14.75;78.65;95820.31;1012071;29;20103;-74
2021/06/03 00:18:18;;;;;;;8.25;5.20;;;;;;;14.70;79.58;95816.44;1011813;29;20497;-74
2021/06/03 00:18:48;;;;;;;8.40;5.45;;;;;;;14.48;81.43;95814.94;1012221;29;20020;-73
2021/06/03 00:19:19;;;;;;;8.45;5.07;;;;;;;14.30;82.81;95800.31;1012043;29;20115;-73
2021/06/03 00:19:49;;;;;;;8.77;4.88;;;;;;;14.42;82.23;95811.22;1012028;29;20115;-74
2021/06/03 00:20:22;;;;;;;11.32;5.28;;;;;;;14.47;81.85;95811.44;1015995;29;20032;-74
2021/06/03 00:20:53;;;;;;;7.90;5.70;;;;;;;14.52;81.63;95809.00;1008434;29;20021;-74
2021/06/03 00:21:23;;;;;;;7.35;5.03;;;;;;;14.53;81.44;95804.47;1012118;29;20486;-74
2021/06/03 00:21:54;;;;;;;8.00;4.85;;;;;;;14.55;81.22;95802.41;1008258;29;20375;-78
2021/06/03 00:22:25;;;;;;;9.18;5.22;;;;;;;14.64;81.20;95817.22;1012144;29;20111;-74
2021/06/03 00:22:56;;;;;;;6.90;4.72;;;;;;;14.57;81.13;95795.00;1012083;29;20017;-73
2021/06/03 00:23:27;;;;;;;7.95;5.05;;;;;;;14.68;80.81;95820.31;1011992;29;20036;-76
2021/06/03 00:23:58;;;;;;;7.50;4.72;;;;;;;14.58;81.10;95811.84;1012067;29;20505;-74
2021/06/03 00:24:30;;;;;;;9.10;4.82;;;;;;;14.59;81.55;95829.56;1019855;29;20030;-74
2021/06/03 00:25:00;;;;;;;7.20;5.30;;;;;;;14.48;82.11;95820.28;1016032;29;20020;-73
2021/06/03 00:25:32;;;;;;;7.65;5.22;;;;;;;14.46;82.24;95819.66;1015894;29;20103;-73
2021/06/03 00:26:03;;;;;;;8.65;5.18;;;;;;;14.50;82.35;95828.91;1012007;29;20052;-74
2021/06/03 00:26:34;;;;;;;7.93;5.22;;;;;;;14.40;82.21;95815.13;1011916;29;20031;-75
2021/06/03 00:27:05;;;;;;;8.25;5.20;;;;;;;14.38;82.81;95826.00;1012284;29;20017;-74
2021/06/03 00:27:36;;;;;;;9.07;4.93;;;;;;;14.35;82.96;95826.44;1012101;29;20016;-75
2021/06/03 00:28:06;;;;;;;7.80;5.55;;;;;;;14.34;83.38;95830.94;1012002;29;20471;-73
2021/06/03 00:28:37;;;;;;;11.23;5.35;;;;;;;14.29;83.04;95819.22;1016066;29;20482;-73
2021/06/03 00:29:09;;;;;;;9.05;4.68;;;;;;;14.38;82.80;95834.03;1019922;29;20026;-75
2021/06/03 00:29:40;;;;;;;9.73;5.30;;;;;;;14.33;82.68;95826.63;1016379;29;20046;-75
2021/06/03 00:30:10;;;;;;;9.93;4.90;;;;;;;14.31;82.76;95822.50;1020072;29;20103;-76
2021/06/03 00:30:41;;;;;;;9.20;5.05;;;;;;;14.32;82.78;95824.97;1012154;29;20023;-74
2021/06/03 00:31:12;;;;;;;6.70;5.20;;;;;;;14.28;83.40;95817.56;1015861;29;20028;-74
2021/06/03 00:31:44;;;;;;;6.10;4.80;;;;;;;14.32;82.97;95821.50;1016927;29;20020;-76
2021/06/03 00:32:14;;;;;;;7.25;5.28;;;;;;;14.30;82.70;95818.19;1016212;29;20020;-75
2021/06/03 00:32:45;;;;;;;7.35;4.93;;;;;;;14.27;82.67;95824.75;1023867;29;20058;-74
2021/06/03 00:33:16;;;;;;;7.75;4.57;;;;;;;14.27;82.70;95829.28;1016268;29;20020;-74
2021/06/03 00:33:46;;;;;;;7.97;5.00;;;;;;;14.35;82.54;95834.44;1016271;29;20024;-76
2021/06/03 00:34:17;;;;;;;9.55;4.72;;;;;;;14.42;82.13;95834.44;1023671;29;20027;-74
2021/06/03 00:34:47;;;;;;;7.68;5.18;;;;;;;14.30;81.75;95826.22;1016018;29;20027;-74
2021/06/03 00:35:19;;;;;;;8.90;5.32;;;;;;;14.34;81.96;95824.78;1016149;29;20107;-74
2021/06/03 00:35:51;;;;;;;9.70;5.10;;;;;;;14.42;81.97;95835.28;1016245;29;20024;-75
2021/06/03 00:36:21;;;;;;;7.13;4.80;;;;;;;14.37;82.21;95831.56;1020187;29;20058;-74
2021/06/03 00:36:52;;;;;;;15.10;5.60;;;;;;;14.24;82.32;95816.31;1016167;29;20031;-74
2021/06/03 00:37:22;;;;;;;8.15;5.28;;;;;;;14.23;83.00;95815.50;1012060;29;20416;-74
2021/06/03 00:37:53;;;;;;;7.05;5.13;;;;;;;14.34;83.08;95832.78;1018162;29;20467;-74
2021/06/03 00:38:23;;;;;;;8.90;5.22;;;;;;;14.12;83.98;95826.78;1024401;29;20031;-74
2021/06/03 00:38:54;;;;;;;7.45;5.32;;;;;;;14.08;84.42;95823.69;1024945;29;20050;-74
2021/06/03 00:39:25;;;;;;;7.05;5.63;;;;;;;14.04;84.16;95809.09;1024033;29;20054;-74
2021/06/03 00:39:55;;;;;;;5.97;4.60;;;;;;;14.19;83.95;95830.28;1016946;29;20076;-74
2021/06/03 00:40:26;;;;;;;7.70;5.35;;;;;;;14.17;83.64;95831.53;1020039;29;20167;-74
2021/06/03 00:40:57;;;;;;;7.43;4.80;;;;;;;14.13;83.63;95829.25;1012338;29;20016;-74
2021/06/03 00:41:27;;;;;;;6.53;4.60;;;;;;;14.09;82.89;95822.66;1020254;29;20108;-74
2021/06/03 00:41:58;;;;;;;7.72;5.03;;;;;;;14.15;82.96;95840.53;1020036;29;20176;-74
2021/06/03 00:42:29;;;;;;;5.85;4.45;;;;;;;14.11;83.14;95841.97;1019675;29;20110;-74
2021/06/03 00:43:00;;;;;;;7.28;4.70;;;;;;;14.01;82.94;95833.53;1020107;29;20039;-74
2021/06/03 00:43:31;;;;;;;8.20;4.78;;;;;;;13.99;82.88;95824.88;1016005;29;20471;-75
2021/06/03 00:44:02;;;;;;;8.05;4.93;;;;;;;14.01;82.89;95840.72;1019848;29;20131;-74
2021/06/03 00:44:33;;;;;;;7.20;4.40;;;;;;;13.91;82.55;95828.53;1011998;29;20025;-74
2021/06/03 00:45:04;;;;;;;7.43;4.22;;;;;;;13.87;83.05;95837.97;1016041;29;20367;-74
2021/06/03 00:45:36;;;;;;;6.30;4.57;;;;;;;13.92;83.11;95838.22;1012024;29;20168;-74
2021/06/03 00:46:07;;;;;;;8.40;4.28;;;;;;;13.93;82.89;95833.69;1013171;29;20035;-74
2021/06/03 00:46:38;;;;;;;9.02;4.88;;;;;;;13.94;82.60;95838.00;1015947;29;20529;-75
2021/06/03 00:47:08;;;;;;;8.48;4.60;;;;;;;13.91;82.58;95833.88;1012235;29;20026;-74
2021/06/03 00:47:39;;;;;;;5.60;4.45;;;;;;;13.98;82.52;95849.94;1012121;29;20028;-74
2021/06/03 00:48:10;;;;;;;7.85;4.80;;;;;;;14.09;82.25;95851.19;1011889;29;20447;-74
2021/06/03 00:48:41;;;;;;;7.75;4.40;;;;;;;14.09;82.18;95840.50;1019841;29;20032;-75
2021/06/03 00:49:11;;;;;;;7.38;4.65;;;;;;;13.99;82.27;95834.75;1016015;29;20028;-74
2021/06/03 00:49:42;;;;;;;6.93;5.03;;;;;;;14.04;82.57;95830.44;1015859;29;20042;-74
2021/06/03 00:50:21;;;;;;;6.15;4.70;;;;;;;14.06;82.70;95841.75;1012279;29;20024;-74
2021/06/03 00:50:53;;;;;;;7.20;4.63;;;;;;;14.09;83.00;95840.50;1021118;29;20114;-74
2021/06/03 00:51:26;;;;;;;8.73;5.28;;;;;;;14.02;83.09;95829.00;1016020;29;20064;-73
2021/06/03 00:51:57;;;;;;;8.27;4.68;;;;;;;14.10;83.31;95845.66;1016008;29;20036;-74
2021/06/03 00:52:27;;;;;;;8.35;4.90;;;;;;;14.14;83.54;95846.94;1015984;29;20099;-74
2021/06/03 00:53:07;;;;;;;9.57;5.10;;;;;;;14.09;83.45;95848.53;1016428;29;20542;-73
2021/06/03 00:53:39;;;;;;;9.27;5.00;;;;;;;14.18;83.28;95857.19;1011135;29;20034;-73
2021/06/03 00:54:10;;;;;;;8.43;4.55;;;;;;;14.11;83.23;95841.97;1015174;29;20470;-74
2021/06/03 00:54:40;;;;;;;8.13;4.82;;;;;;;14.26;82.90;95847.13;1019617;29;20027;-74
2021/06/03 00:55:11;;;;;;;8.77;4.22;;;;;;;14.27;82.85;95848.78;1017869;29;20107;-74
2021/06/03 00:55:44;;;;;;;7.20;4.60;;;;;;;14.29;82.97;95853.94;1014576;29;20036;-74
2021/06/03 00:56:14;;;;;;;7.05;4.93;;;;;;;14.32;82.68;95853.53;1014809;29;20398;-75
2021/06/03 00:56:45;;;;;;;7.32;4.57;;;;;;;14.31;82.43;95850.03;1011308;29;20028;-76
2021/06/03 00:57:15;;;;;;;7.28;5.03;;;;;;;14.30;82.38;95842.25;1014420;29;20028;-74
2021/06/03 00:57:46;;;;;;;5.93;4.38;;;;;;;14.38;82.56;95855.41;1015634;29;20099;-74
2021/06/03 00:58:17;;;;;;;7.80;4.93;;;;;;;14.41;82.51;95854.19;1018246;29;20482;-74
2021/06/03 00:58:47;;;;;;;7.70;4.75;;;;;;;14.34;82.59;95856.84;1015713;29;20132;-75
2021/06/03 00:59:18;;;;;;;8.20;4.68;;;;;;;14.31;82.79;95854.56;1011897;29;20092;-75
2021/06/03 00:59:49;;;;;;;5.40;4.65;;;;;;;14.30;82.88;95844.91;1015665;29;20020;-74
2021/06/03 01:00:20;;;;;;;9.85;4.93;;;;;;;14.36;82.48;95849.44;1011951;29;20027;-74
2021/06/03 01:00:51;;;;;;;8.00;5.07;;;;;;;14.37;82.56;95842.22;1011721;29;20570;-75
2021/06/03 01:01:21;;;;;;;7.88;4.93;;;;;;;14.38;82.67;95849.25;1012162;29;20443;-74
2021/06/03 01:01:52;;;;;;;7.10;5.05;;;;;;;14.26;82.79;95838.31;1012254;29;20232;-75
2021/06/03 01:02:22;;;;;;;7.13;4.97;;;;;;;14.27;83.38;95853.31;1019374;29;20625;-75
2021/06/03 01:02:53;;;;;;;15.10;5.50;;;;;;;14.28;83.40;95854.97;1019629;29;20020;-74
2021/06/03 01:03:25;;;;;;;9.13;5.55;;;;;;;14.26;83.64;95849.00;1019569;29;20048;-75
2021/06/03 01:03:55;;;;;;;8.48;5.18;;;;;;;14.23;83.56;95847.56;1017194;29;20032;-75
2021/06/03 01:04:26;;;;;;;7.60;4.93;;;;;;;14.33;83.78;95857.84;1005396;29;20110;-76
2021/06/03 01:04:56;;;;;;;10.52;5.20;;;;;;;14.27;83.31;95847.97;1010447;29;20103;-77
2021/06/03 01:05:43;;;;;;;7.22;4.78;;;;;;;14.34;83.66;95859.50;1019427;29;20026;-78
2021/06/03 01:06:14;;;;;;;10.15;5.10;;;;;;;14.29;83.78;95857.44;1022202;29;20032;-77
2021/06/03 01:06:44;;;;;;;12.65;5.20;;;;;;;14.27;83.70;95856.00;1012685;29;20104;-80
2021/06/03 01:07:23;;;;;;;8.52;5.10;;;;;;;14.14;83.87;95844.25;1021163;29;20044;-82
2021/06/03 01:07:57;;;;;;;9.27;5.00;;;;;;;14.23;83.84;95841.38;1020624;29;20099;-80
2021/06/03 01:08:42;;;;;;;10.20;5.38;;;;;;;14.03;83.22;95804.75;1021938;29;20024;-81
2021/06/03 01:09:28;;;;;;;7.55;5.05;;;;;;;14.22;83.18;95829.88;1018247;29;20051;-80
2021/06/03 01:10:14;;;;;;;8.32;5.03;;;;;;;14.29;82.99;95844.06;1012493;29;20391;-80
2021/06/03 01:10:55;;;;;;;7.30;5.38;;;;;;;14.39;83.05;95859.72;1017448;29;20570;-81
2021/06/03 01:12:00;;;;;;;6.53;4.60;;;;;;;14.42;82.67;95859.34;1015210;29;20025;-81
2021/06/03 01:12:41;;;;;;;9.90;5.00;;;;;;;14.07;82.71;95813.19;1014504;29;20040;-81
2021/06/03 01:13:50;;;;;;;8.90;5.38;;;;;;;14.42;82.95;95862.00;1013022;29;20423;-82
2021/06/03 01:14:24;;;;;;;8.57;5.35;;;;;;;13.99;82.74;95798.19;1016597;29;20056;-82
2021/06/03 01:14:56;;;;;;;7.03;5.03;;;;;;;14.38;82.97;95863.41;1022488;29;20019;-81
2021/06/03 01:15:27;;;;;;;12.80;5.40;;;;;;;14.19;82.77;95829.47;1014426;29;20024;-81
2021/06/03 01:15:58;;;;;;;7.93;5.05;;;;;;;14.04;82.72;95806.41;1021974;29;20079;-82
2021/06/03 01:16:29;;;;;;;6.97;5.03;;;;;;;14.34;82.91;95854.97;1014285;29;20036;-82
2021/06/03 01:17:00;;;;;;;11.52;5.35;;;;;;;14.40;82.82;95865.88;1015649;29;20020;-82
2021/06/03 01:17:30;;;;;;;7.40;4.82;;;;;;;13.91;82.49;95780.47;1017122;29;20119;-83
2021/06/03 01:18:04;;;;;;;8.40;5.20;;;;;;;14.13;82.08;95812.41;1016005;29;20027;-82
2021/06/03 01:18:37;;;;;;;7.45;5.20;;;;;;;14.19;82.19;95818.78;1022211;29;20122;-82
2021/06/03 01:19:14;;;;;;;8.82;4.70;;;;;;;14.34;82.12;95854.16;1023546;29;20039;-81
2021/06/03 01:19:45;;;;;;;6.15;4.68;;;;;;;14.20;81.97;95820.44;1017865;29;20087;-82
2021/06/03 01:20:16;;;;;;;7.00;5.00;;;;;;;14.45;81.98;95861.56;1014293;29;20032;-82
2021/06/03 01:20:47;;;;;;;8.65;5.13;;;;;;;14.40;81.73;95863.22;1019024;29;20024;-81
2021/06/03 01:21:33;;;;;;;6.63;4.95;;;;;;;14.40;81.85;95849.84;1013127;29;20064;-83
2021/06/03 01:22:23;;;;;;;8.98;5.00;;;;;;;14.50;81.39;95861.78;1013718;29;20024;-79
2021/06/03 01:23:17;;;;;;;7.38;4.60;;;;;;;14.49;82.67;95864.66;1016863;29;20024;-79
2021/06/03 01:23:55;;;;;;;7.43;4.50;;;;;;;14.32;83.03;95859.72;1020744;29;20028;-80
2021/06/03 01:24:36;;;;;;;7.45;4.63;;;;;;;14.23;83.36;95844.91;1018052;29;20032;-81
2021/06/03 01:25:09;;;;;;;7.90;4.78;;;;;;;14.33;83.67;95866.72;1016961;29;20590;-79
2021/06/03 01:25:40;;;;;;;6.75;4.57;;;;;;;14.36;83.81;95867.31;1019256;29;20043;-81
2021/06/03 01:26:11;;;;;;;6.55;4.25;;;;;;;14.28;83.88;95866.50;1020835;29;20054;-81
2021/06/03 01:26:43;;;;;;;6.93;4.90;;;;;;;14.34;83.81;95864.84;1021250;29;20059;-80
2021/06/03 01:27:19;;;;;;;8.80;5.13;;;;;;;14.24;84.08;95848.38;1013271;29;20575;-79
2021/06/03 01:27:50;;;;;;;9.57;4.80;;;;;;;14.27;84.11;95862.16;1020132;29;20016;-80
2021/06/03 01:28:21;;;;;;;6.68;5.15;;;;;;;14.17;84.00;95853.69;1009175;29;20109;-80
2021/06/03 01:28:52;;;;;;;6.43;4.55;;;;;;;14.16;84.73;95873.44;1021802;29;20028;-80
2021/06/03 01:29:22;;;;;;;7.53;5.05;;;;;;;14.03;84.82;95847.50;1013336;29;20025;-80
2021/06/03 01:29:57;;;;;;;6.10;4.78;;;;;;;14.20;85.09;95871.19;1016603;29;20027;-80
2021/06/03 01:30:39;;;;;;;6.25;4.82;;;;;;;14.23;84.64;95868.94;1016959;29;20089;-81
2021/06/03 01:31:10;;;;;;;7.85;4.65;;;;;;;14.30;84.42;95871.63;1014003;29;20024;-80
2021/06/03 01:31:41;;;;;;;8.23;4.20;;;;;;;14.34;83.85;95873.69;1025657;29;20067;-81
2021/06/03 01:32:12;;;;;;;8.75;5.03;;;;;;;14.28;84.01;95860.31;1014178;29;20498;-80
2021/06/03 01:33:04;;;;;;;10.05;4.45;;;;;;;14.33;83.94;95869.38;1017144;29;20024;-80
2021/06/03 01:33:38;;;;;;;8.13;4.80;;;;;;;14.39;81.79;95877.63;1018726;29;20032;-80
2021/06/03 01:34:10;;;;;;;8.00;4.72;;;;;;;14.41;82.03;95876.38;1021600;29;20028;-80
2021/06/03 01:34:40;;;;;;;6.40;4.65;;;;;;;14.34;82.93;95878.22;1024079;29;20063;-81
2021/06/03 01:35:16;;;;;;;7.05;4.53;;;;;;;14.08;83.25;95842.38;1020666;29;20031;-81
2021/06/03 01:35:49;;;;;;;7.35;4.90;;;;;;;14.25;83.04;95874.09;1016918;29;20024;-81
2021/06/03 01:36:20;;;;;;;7.07;4.20;;;;;;;14.35;83.03;95877.19;1020474;29;20027;-81
2021/06/03 01:36:50;;;;;;;6.05;4.15;;;;;;;14.36;83.09;95873.47;1020797;29;20032;-80
2021/06/03 01:37:21;;;;;;;8.68;4.85;;;;;;;14.33;83.33;95874.72;1019023;29;20107;-80
2021/06/03 01:37:52;;;;;;;6.70;4.55;;;;;;;14.27;83.11;95869.34;1016354;29;20087;-80
2021/06/03 01:38:28;;;;;;;7.70;3.95;;;;;;;14.20;82.81;95847.97;1013976;29;20051;-81
2021/06/03 01:39:00;;;;;;;6.38;4.22;;;;;;;14.23;82.55;95860.91;1016609;29;20025;-81
2021/06/03 01:39:32;;;;;;;6.82;4.15;;;;;;;14.24;82.51;95856.41;1014998;29;20120;-83
2021/06/03 01:40:07;;;;;;;6.90;4.30;;;;;;;14.33;82.56;95879.22;1014279;29;20020;-80
2021/06/03 01:40:39;;;;;;;8.85;4.88;;;;;;;14.06;83.10;95831.06;1015044;29;20016;-80
2021/06/03 01:41:10;;;;;;;9.35;4.20;;;;;;;14.32;83.55;95877.59;1015959;29;20364;-81
2021/06/03 01:41:44;;;;;;;6.57;4.45;;;;;;;14.21;83.66;95870.16;1015573;29;20503;-83
2021/06/03 01:42:15;;;;;;;7.18;4.30;;;;;;;14.15;83.46;95856.56;1023971;29;20461;-83
2021/06/03 01:42:46;;;;;;;7.70;4.70;;;;;;;14.24;83.55;95878.59;1015902;29;20019;-83
2021/06/03 01:43:18;;;;;;;7.25;4.20;;;;;;;14.24;83.59;95869.75;1022951;29;20657;-82
2021/06/03 01:43:49;;;;;;;9.07;4.50;;;;;;;13.89;83.30;95819.91;1021053;29;20020;-83
2021/06/03 01:44:20;;;;;;;6.55;4.72;;;;;;;14.11;83.39;95855.34;1014495;29;20092;-82
2021/06/03 01:44:50;;;;;;;7.57;4.65;;;;;;;14.08;83.69;95858.41;1016347;29;20028;-82
2021/06/03 01:45:21;;;;;;;8.88;4.25;;;;;;;14.25;83.72;95882.09;1015167;29;20088;-83
2021/06/03 01:45:51;;;;;;;8.30;4.28;;;;;;;14.13;84.06;95871.16;1019366;29;20075;-81
2021/06/03 01:46:22;;;;;;;6.40;4.18;;;;;;;14.22;83.72;95887.84;1024345;28;20522;-85
2021/06/03 01:46:53;;;;;;;6.03;4.45;;;;;;;14.18;84.46;95890.09;1018743;29;20102;-83
2021/06/03 01:47:24;;;;;;;8.13;4.10;;;;;;;14.17;84.23;95892.94;1024817;29;20024;-84
2021/06/03 01:47:55;;;;;;;8.13;4.47;;;;;;;13.97;84.64;95859.00;1023224;29;20028;-83
2021/06/03 01:48:26;;;;;;;7.45;3.80;;;;;;;14.02;84.49;95867.22;1018348;29;20013;-83
2021/06/03 01:48:57;;;;;;;6.82;4.63;;;;;;;14.10;84.43;95885.72;1015219;29;20032;-82
2021/06/03 01:49:27;;;;;;;10.52;4.80;;;;;;;14.07;84.32;95888.81;1020911;29;20059;-81
2021/06/03 01:49:58;;;;;;;7.75;4.47;;;;;;;14.13;83.72;95885.31;1018982;28;20028;-81
2021/06/03 01:50:29;;;;;;;9.13;4.80;;;;;;;14.14;83.41;95881.66;1016576;29;20027;-80
2021/06/03 01:51:02;;;;;;;7.78;4.32;;;;;;;14.13;83.46;95887.19;1020781;29;20063;-80
2021/06/03 01:51:33;;;;;;;8.48;4.50;;;;;;;14.16;83.17;95886.78;1017968;29;20031;-79
2021/06/03 01:52:04;;;;;;;7.55;4.45;;;;;;;14.13;83.45;95881.84;1017209;29;20091;-79
2021/06/03 01:52:35;;;;;;;8.13;4.72;;;;;;;13.87;83.21;95847.84;1018209;29;20127;-79
2021/06/03 01:53:05;;;;;;;9.50;4.35;;;;;;;14.18;83.27;95889.22;1024454;28;20089;-80
2021/06/03 01:53:36;;;;;;;11.55;4.75;;;;;;;13.98;83.62;95870.47;1016860;29;20030;-80
2021/06/03 01:54:07;;;;;;;6.85;4.68;;;;;;;14.04;84.06;95883.88;1012655;29;20028;-79
2021/06/03 01:54:38;;;;;;;7.30;4.35;;;;;;;14.04;83.89;95880.38;1020772;29;20019;-79
2021/06/03 01:55:11;;;;;;;7.55;4.60;;;;;;;14.06;84.02;95889.81;1008932;29;20031;-79
2021/06/03 01:55:47;;;;;;;7.65;4.43;;;;;;;13.83;84.00;95865.28;1016992;29;20024;-79
2021/06/03 01:56:20;;;;;;;8.73;4.60;;;;;;;13.79;84.03;95856.03;1020911;29;20030;-79
2021/06/03 01:56:55;;;;;;;8.38;4.70;;;;;;;13.98;84.40;95897.19;1013078;29;20123;-79
2021/06/03 01:57:27;;;;;;;8.85;4.57;;;;;;;14.01;84.32;95889.59;1020733;29;20363;-80
2021/06/03 01:58:00;;;;;;;6.55;4.97;;;;;;;13.75;83.96;95839.56;1013001;29;20464;-79
2021/06/03 01:58:33;;;;;;;6.18;4.60;;;;;;;13.96;83.81;95868.00;1024497;29;20485;-79
2021/06/03 01:59:07;;;;;;;5.32;4.15;;;;;;;14.04;83.61;95885.72;1021333;28;20503;-81
2021/06/03 01:59:38;;;;;;;8.73;4.55;;;;;;;13.70;83.74;95832.16;1016937;29;20080;-79
2021/06/03 02:00:10;;;;;;;10.63;5.13;;;;;;;13.75;83.72;95839.56;1020444;29;20055;-79
2021/06/03 02:00:44;;;;;;;11.40;4.65;;;;;;;13.83;84.02;95854.59;1012994;29;20028;-79
2021/06/03 02:01:18;;;;;;;7.65;4.82;;;;;;;13.70;84.23;95837.50;1012863;29;20037;-79
2021/06/03 02:02:00;;;;;;;8.05;4.70;;;;;;;13.79;83.92;95856.03;1012822;29;20029;-79
2021/06/03 02:02:35;;;;;;;5.80;4.07;;;;;;;13.54;83.97;95816.50;1012714;29;20504;-79
2021/06/03 02:03:07;;;;;;;5.95;4.63;;;;;;;13.90;84.39;95884.84;1024560;29;20023;-80
2021/06/03 02:03:41;;;;;;;7.70;4.78;;;;;;;13.94;84.40;95886.88;1020565;29;20051;-80
2021/06/03 02:04:18;;;;;;;10.40;4.57;;;;;;;13.52;84.63;95829.22;1024745;28;20106;-80
2021/06/03 02:05:00;;;;;;;8.60;4.95;;;;;;;13.93;84.24;95890.59;1022948;29;20071;-80
2021/06/03 02:05:35;;;;;;;8.88;4.95;;;;;;;13.90;84.74;95891.00;1020749;29;20087;-79
2021/06/03 02:06:08;;;;;;;6.78;4.70;;;;;;;13.57;84.83;95848.94;1020649;29;20123;-80
2021/06/03 02:06:45;;;;;;;9.52;5.45;;;;;;;13.54;85.08;95846.66;1020722;29;20090;-80
2021/06/03 02:07:19;;;;;;;8.60;4.75;;;;;;;13.55;85.42;95855.50;1020895;29;20398;-79
2021/06/03 02:07:56;;;;;;;11.20;4.88;;;;;;;13.52;85.86;95855.88;1020737;29;20076;-80
2021/06/03 02:08:46;;;;;;;8.10;5.28;;;;;;;13.79;86.07;95896.06;1024627;29;20114;-79
2021/06/03 02:09:30;;;;;;;7.78;4.85;;;;;;;13.81;85.96;95894.84;1016945;29;20063;-80
2021/06/03 02:10:09;;;;;;;6.95;4.70;;;;;;;13.52;85.86;95855.88;1024398;29;20524;-79
2021/06/03 02:10:51;;;;;;;6.20;4.20;;;;;;;13.79;85.74;95894.19;1024692;29;20023;-80
2021/06/03 02:11:40;;;;;;;8.80;4.38;;;;;;;13.68;86.05;95898.25;1016977;29;20032;-81
2021/06/03 02:12:18;;;;;;;7.80;4.22;;;;;;;13.74;86.21;95891.31;1012664;29;20036;-80
2021/06/03 02:13:28;;;;;;;8.15;4.35;;;;;;;13.68;86.18;95884.91;1017018;29;20070;-79
2021/06/03 02:14:01;;;;;;;6.70;4.53;;;;;;;13.61;85.98;95876.03;1026536;28;20031;-79
2021/06/03 02:14:35;;;;;;;8.88;4.28;;;;;;;13.43;85.87;95849.88;1021357;29;20549;-79
2021/06/03 02:15:09;;;;;;;8.32;4.35;;;;;;;13.58;85.79;95879.09;1020743;29;20128;-80
2021/06/03 02:16:17;;;;;;;5.95;4.63;;;;;;;13.65;85.65;95887.97;1012626;29;20068;-79
2021/06/03 02:17:22;;;;;;;5.72;4.03;;;;;;;13.64;85.48;95901.53;1027537;28;20039;-80
2021/06/03 02:18:03;;;;;;;7.50;4.40;;;;;;;13.53;86.12;95892.22;1024802;29;20063;-79
2021/06/03 02:18:44;;;;;;;10.52;5.00;;;;;;;13.45;85.79;95879.84;1018979;29;20539;-79
2021/06/03 02:19:28;;;;;;;8.02;4.63;;;;;;;13.44;85.81;95891.53;1018371;29;20092;-79
2021/06/03 02:20:20;;;;;;;6.82;4.45;;;;;;;13.25;86.49;95886.88;1009188;29;20029;-79
2021/06/03 02:21:12;;;;;;;6.70;3.88;;;;;;;13.16;87.45;95892.34;1011301;29;20124;-80
2021/06/03 02:21:54;;;;;;;8.40;5.22;;;;;;;13.19;87.64;95909.81;1014266;29;20062;-79
2021/06/03 02:22:35;;;;;;;7.32;4.30;;;;;;;13.11;87.80;95893.94;1010547;29;20044;-80
2021/06/03 02:23:17;;;;;;;6.72;4.30;;;;;;;13.13;87.34;95887.41;1009250;29;20449;-79
2021/06/03 02:23:52;;;;;;;9.48;4.60;;;;;;;13.19;87.52;95905.28;1013255;29;20451;-79
2021/06/03 02:24:31;;;;;;;10.52;4.82;;;;;;;13.16;87.48;95888.84;1017953;29;20577;-80
2021/06/03 02:25:09;;;;;;;5.90;4.38;;;;;;;12.92;86.96;95845.63;1013181;29;20032;-79
2021/06/03 02:25:50;;;;;;;6.90;3.80;;;;;;;12.89;86.56;95843.34;1020658;29;20023;-80
2021/06/03 02:26:56;;;;;;;7.70;4.40;;;;;;;13.36;86.47;95910.38;1020053;29;20035;-80
2021/06/03 02:28:23;;;;;;;4.85;3.83;;;;;;;13.27;86.30;95911.50;1028879;28;20082;-79
2021/06/03 02:29:09;;;;;;;5.95;4.15;;;;;;;13.21;86.14;95905.91;1029198;28;20019;-79
2021/06/03 02:30:02;;;;;;;6.20;3.72;;;;;;;13.14;86.33;95906.88;1020729;29;20032;-79
2021/06/03 02:31:08;;;;;;;8.95;3.85;;;;;;;13.23;86.24;95911.06;1027684;28;20073;-79
2021/06/03 02:32:01;;;;;;;6.15;3.80;;;;;;;13.09;86.51;95902.13;1031038;28;20031;-79
2021/06/03 02:32:49;;;;;;;4.40;3.35;;;;;;;13.19;86.42;95907.13;1028142;29;20051;-79
2021/06/03 02:33:31;;;;;;;5.50;4.00;;;;;;;13.10;86.49;95889.63;1018921;29;20120;-79
2021/06/03 02:34:27;;;;;;;6.35;3.70;;;;;;;12.94;86.25;95864.06;1026519;29;20046;-79
2021/06/03 02:35:41;;;;;;;7.00;4.10;;;;;;;13.22;86.05;95912.09;1028865;28;20189;-79
2021/06/03 02:36:32;;;;;;;5.90;3.50;;;;;;;13.20;86.54;95911.44;1026530;28;20043;-79
2021/06/03 02:37:22;;;;;;;7.60;3.53;;;;;;;12.94;86.48;95870.22;1032749;28;20034;-78
2021/06/03 02:38:33;;;;;;;6.30;3.70;;;;;;;13.00;86.68;95893.44;1028014;28;20034;-79
2021/06/03 02:39:28;;;;;;;6.30;3.95;;;;;;;13.01;86.83;95903.09;1028739;28;20050;-80
2021/06/03 02:40:31;;;;;;;5.50;4.05;;;;;;;13.06;87.00;95902.50;1028014;28;20143;-79
2021/06/03 02:41:09;;;;;;;8.32;4.38;;;;;;;12.99;86.98;95894.47;1027902;28;20106;-79
2021/06/03 02:42:00;;;;;;;5.32;3.95;;;;;;;12.93;86.76;95884.56;1024310;29;20042;-79
2021/06/03 02:42:53;;;;;;;5.60;3.78;;;;;;;12.97;86.60;95891.16;1024404;29;20024;-78
2021/06/03 02:43:38;;;;;;;7.38;3.97;;;;;;;13.04;86.69;95912.53;1016736;29;20023;-79
2021/06/03 02:44:39;;;;;;;8.40;3.70;;;;;;;13.10;86.71;95906.47;1012767;29;20032;-79
2021/06/03 02:45:28;;;;;;;5.47;3.58;;;;;;;12.88;86.63;95876.31;1022310;29;20086;-79
2021/06/03 02:46:00;;;;;;;5.47;3.88;;;;;;;13.02;86.62;95906.59;1020411;29;20102;-78
2021/06/03 02:46:38;;;;;;;7.65;4.18;;;;;;;12.79;86.72;95872.97;1012532;29;20134;-79
2021/06/03 02:47:20;;;;;;;7.85;4.20;;;;;;;12.64;87.15;95864.22;1024461;28;20046;-78